createdAt,value
2022-08-29T00:00:26.571Z,99011.52
2022-08-29T00:03:09.117Z,99010.61
2022-08-29T00:05:40.031Z,99013.16
2022-08-29T00:08:10.489Z,99012.20
2022-08-29T00:10:39.885Z,99011.24
2022-08-29T00:13:09.994Z,99010.84
2022-08-29T00:15:44.988Z,99010.48
2022-08-29T00:18:17.149Z,99012.38
2022-08-29T00:20:45.616Z,99015.60
2022-08-29T00:23:14.298Z,99013.20
2022-08-29T00:25:42.673Z,99014.28
2022-08-29T00:28:11.086Z,99015.84
2022-08-29T00:30:40.433Z,99015.54
2022-08-29T00:33:09.237Z,99014.14
2022-08-29T00:35:40.672Z,99011.36
2022-08-29T00:38:11.515Z,99010.76
2022-08-29T00:40:51.229Z,99010.98
2022-08-29T00:43:27.199Z,99006.37
2022-08-29T00:46:04.337Z,99008.94
2022-08-29T00:48:36.297Z,99005.56
2022-08-29T00:51:09.103Z,99006.88
2022-08-29T00:53:41.200Z,99010.79
2022-08-29T00:56:12.951Z,99012.61
2022-08-29T00:58:46.434Z,99011.40
2022-08-29T01:01:15.239Z,99010.45
2022-08-29T01:03:43.589Z,99010.99
2022-08-29T01:06:13.722Z,99009.58
2022-08-29T01:08:43.364Z,99010.78
2022-08-29T01:11:35.121Z,99010.78
2022-08-29T01:14:04.866Z,99010.02
2022-08-29T01:16:33.329Z,99010.05
2022-08-29T01:19:27.992Z,99010.73
2022-08-29T01:22:13.849Z,99009.91
2022-08-29T01:24:51.770Z,99006.33
2022-08-29T01:27:24.019Z,99003.95
2022-08-29T01:29:52.486Z,99004.23
2022-08-29T01:32:22.570Z,99002.87
2022-08-29T01:34:51.001Z,99007.28
2022-08-29T01:37:20.193Z,99008.47
2022-08-29T01:39:49.945Z,99008.64
2022-08-29T01:42:21.458Z,99014.48
2022-08-29T01:44:57.916Z,99013.59
2022-08-29T01:47:29.570Z,99012.42
2022-08-29T01:49:57.984Z,99017.39
2022-08-29T01:52:26.267Z,99016.42
2022-08-29T01:54:54.809Z,99018.83
2022-08-29T01:57:23.229Z,99019.98
2022-08-29T01:59:51.886Z,99020.05
2022-08-29T02:02:29.491Z,99019.54
2022-08-29T02:04:58.764Z,99024.88
2022-08-29T02:07:27.129Z,99022.23
2022-08-29T02:09:55.455Z,99022.90
2022-08-29T02:12:25.418Z,99021.75
2022-08-29T02:14:53.705Z,99023.30
2022-08-29T02:17:22.522Z,99025.42
2022-08-29T02:19:51.369Z,99028.65
2022-08-29T02:22:20.605Z,99028.19
2022-08-29T02:24:48.921Z,99029.72
2022-08-29T02:27:17.289Z,99030.23
2022-08-29T02:29:45.582Z,99027.56
2022-08-29T02:32:16.197Z,99028.81
2022-08-29T02:34:47.518Z,99026.27
2022-08-29T02:37:17.274Z,99030.31
2022-08-29T02:39:46.175Z,99028.02
2022-08-29T02:42:14.406Z,99029.08
2022-08-29T02:44:42.645Z,99029.92
2022-08-29T02:47:11.002Z,99029.89
2022-08-29T02:49:39.804Z,99031.00
2022-08-29T02:52:08.762Z,99030.87
2022-08-29T02:54:37.362Z,99029.85
2022-08-29T02:57:06.674Z,99030.36
2022-08-29T02:59:34.991Z,99032.17
2022-08-29T03:02:03.644Z,99029.02
2022-08-29T03:04:31.955Z,99026.85
2022-08-29T03:07:00.176Z,99028.13
2022-08-29T03:09:28.598Z,99024.37
2022-08-29T03:11:57.086Z,99029.64
2022-08-29T03:14:25.943Z,99030.02
2022-08-29T03:16:54.349Z,99032.41
2022-08-29T03:19:23.090Z,99028.08
2022-08-29T03:21:51.560Z,99028.84
2022-08-29T03:24:26.903Z,99030.49
2022-08-29T03:26:56.897Z,99035.20
2022-08-29T03:29:27.641Z,99037.95
2022-08-29T03:31:58.781Z,99042.11
2022-08-29T03:34:28.156Z,99044.68
2022-08-29T03:36:56.553Z,99049.23
2022-08-29T03:39:25.674Z,99053.55
2022-08-29T03:41:54.157Z,99060.17
2022-08-29T03:44:23.321Z,99066.45
2022-08-29T03:46:51.648Z,99069.84
2022-08-29T03:49:20.574Z,99073.55
2022-08-29T03:51:50.143Z,99075.40
2022-08-29T03:54:18.433Z,99076.52
2022-08-29T03:56:47.630Z,99080.79
2022-08-29T03:59:17.588Z,99081.52
2022-08-29T04:01:48.370Z,99085.10
2022-08-29T04:04:38.276Z,99082.93
2022-08-29T04:07:06.992Z,99084.44
2022-08-29T04:09:37.397Z,99085.23
2022-08-29T04:12:05.817Z,99089.13
2022-08-29T04:14:35.550Z,99090.68
2022-08-29T04:17:04.554Z,99091.14
2022-08-29T04:19:33.416Z,99092.63
2022-08-29T04:22:02.771Z,99097.23
2022-08-29T04:24:32.478Z,99095.55
2022-08-29T04:27:00.761Z,99101.21
2022-08-29T04:29:29.074Z,99103.30
2022-08-29T04:31:57.470Z,99101.71
2022-08-29T04:34:26.067Z,99109.09
2022-08-29T04:36:54.318Z,99113.36
2022-08-29T04:39:23.593Z,99110.02
2022-08-29T04:41:51.928Z,99114.96
2022-08-29T04:44:20.241Z,99115.69
2022-08-29T04:46:48.628Z,99117.73
2022-08-29T04:49:16.955Z,99113.98
2022-08-29T04:51:45.210Z,99118.94
2022-08-29T04:54:13.667Z,99120.59
2022-08-29T04:56:44.320Z,99120.34
2022-08-29T04:59:17.119Z,99124.66
2022-08-29T05:01:46.932Z,99128.42
2022-08-29T05:04:15.313Z,99130.79
2022-08-29T05:06:43.597Z,99138.55
2022-08-29T05:09:11.866Z,99138.89
2022-08-29T05:11:40.537Z,99142.70
2022-08-29T05:14:09.483Z,99146.66
2022-08-29T05:16:39.052Z,99147.89
2022-08-29T05:19:08.639Z,99151.05
2022-08-29T05:21:39.990Z,99153.84
2022-08-29T05:24:12.485Z,99153.92
2022-08-29T05:26:43.966Z,99157.30
2022-08-29T05:29:13.861Z,99158.17
2022-08-29T05:31:45.411Z,99157.80
2022-08-29T05:34:31.909Z,99159.02
2022-08-29T05:37:05.925Z,99157.55
2022-08-29T05:39:35.516Z,99164.59
2022-08-29T05:42:06.095Z,99163.80
2022-08-29T05:44:36.759Z,99166.28
2022-08-29T05:47:11.329Z,99162.65
2022-08-29T05:49:42.247Z,99162.39
2022-08-29T05:52:12.848Z,99162.69
2022-08-29T05:54:43.310Z,99165.05
2022-08-29T05:57:18.766Z,99169.48
2022-08-29T05:59:53.318Z,99167.90
2022-08-29T06:02:23.275Z,99164.19
2022-08-29T06:04:52.982Z,99164.10
2022-08-29T06:07:21.904Z,99169.86
2022-08-29T06:09:54.645Z,99172.96
2022-08-29T06:12:28.770Z,99178.87
2022-08-29T06:14:57.137Z,99181.27
2022-08-29T06:17:28.105Z,99185.67
2022-08-29T06:19:56.408Z,99185.77
2022-08-29T06:22:24.734Z,99190.73
2022-08-29T06:24:57.549Z,99194.14
2022-08-29T06:27:27.370Z,99200.78
2022-08-29T06:29:59.075Z,99200.75
2022-08-29T06:32:29.817Z,99201.49
2022-08-29T06:34:59.238Z,99207.54
2022-08-29T06:37:27.483Z,99205.95
2022-08-29T06:39:56.127Z,99208.39
2022-08-29T06:42:25.674Z,99213.34
2022-08-29T06:44:58.072Z,99214.73
2022-08-29T06:47:26.641Z,99213.67
2022-08-29T06:49:55.118Z,99218.61
2022-08-29T06:52:23.474Z,99223.30
2022-08-29T06:54:51.819Z,99225.23
2022-08-29T06:57:21.154Z,99229.11
2022-08-29T06:59:49.630Z,99238.53
2022-08-29T07:02:17.983Z,99238.77
2022-08-29T07:04:46.305Z,99239.85
2022-08-29T07:07:14.637Z,99239.98
2022-08-29T07:09:44.507Z,99242.64
2022-08-29T07:12:12.742Z,99242.13
2022-08-29T07:14:41.125Z,99242.48
2022-08-29T07:17:09.413Z,99245.48
2022-08-29T07:19:37.747Z,99246.63
2022-08-29T07:22:08.169Z,99249.27
2022-08-29T07:24:36.455Z,99250.01
2022-08-29T07:27:04.785Z,99246.97
2022-08-29T07:29:33.533Z,99251.13
2022-08-29T07:32:05.441Z,99252.73
2022-08-29T07:34:34.118Z,99256.05
2022-08-29T07:37:05.941Z,99258.72
2022-08-29T07:39:34.567Z,99263.23
2022-08-29T07:42:03.453Z,99263.90
2022-08-29T07:44:33.263Z,99266.83
2022-08-29T07:47:05.125Z,99271.50
2022-08-29T07:49:41.195Z,99268.73
2022-08-29T07:52:10.686Z,99268.03
2022-08-29T07:54:39.004Z,99275.83
2022-08-29T07:57:07.247Z,99276.98
2022-08-29T07:59:35.638Z,99276.05
2022-08-29T08:02:04.053Z,99280.34
2022-08-29T08:04:32.421Z,99284.10
2022-08-29T08:07:00.760Z,99283.33
2022-08-29T08:09:29.153Z,99292.91
2022-08-29T08:11:57.785Z,99297.54
2022-08-29T08:14:34.613Z,99301.62
2022-08-29T08:17:04.109Z,99303.70
2022-08-29T08:19:33.493Z,99299.27
2022-08-29T08:22:02.494Z,99301.16
2022-08-29T08:24:30.808Z,99303.99
2022-08-29T08:26:59.097Z,99309.11
2022-08-29T08:29:27.588Z,99310.27
2022-08-29T08:31:59.944Z,99306.15
2022-08-29T08:34:30.407Z,99301.50
2022-08-29T08:37:00.754Z,99302.92
2022-08-29T08:39:29.641Z,99299.89
2022-08-29T08:42:06.574Z,99299.32
2022-08-29T08:44:49.739Z,99300.20
2022-08-29T08:47:26.903Z,99299.58
2022-08-29T08:50:12.499Z,99301.71
2022-08-29T08:52:40.540Z,99304.80
2022-08-29T08:55:18.165Z,99307.38
2022-08-29T08:58:05.618Z,99303.86
2022-08-29T09:00:45.647Z,99306.54
2022-08-29T09:03:19.685Z,99306.05
2022-08-29T09:05:54.096Z,99299.02
2022-08-29T09:08:36.483Z,99299.41
2022-08-29T09:11:19.947Z,99294.89
2022-08-29T09:13:53.979Z,99297.70
2022-08-29T09:16:43.249Z,99298.40
2022-08-29T09:19:17.202Z,99295.56
2022-08-29T09:21:52.153Z,99298.40
2022-08-29T09:24:34.075Z,99294.98
2022-08-29T09:27:02.922Z,99295.63
2022-08-29T09:29:31.316Z,99301.20
2022-08-29T09:32:12.825Z,99306.89
2022-08-29T09:37:35.409Z,99310.56
2022-08-29T09:40:11.066Z,99313.75
2022-08-29T09:42:46.694Z,99317.31
2022-08-29T09:45:25.243Z,99317.01
2022-08-29T09:48:11.108Z,99317.52
2022-08-29T09:50:40.240Z,99319.86
2022-08-29T09:53:14.364Z,99321.98
2022-08-29T09:55:53.856Z,99316.28
2022-08-29T09:58:22.010Z,99317.62
2022-08-29T10:00:59.277Z,99319.55
2022-08-29T10:03:32.781Z,99315.98
2022-08-29T10:06:23.054Z,99316.45
2022-08-29T10:09:03.613Z,99314.58
2022-08-29T10:11:42.286Z,99315.89
2022-08-29T10:14:17.432Z,99311.64
2022-08-29T10:17:25.666Z,99315.40
2022-08-29T10:19:53.985Z,99317.21
2022-08-29T10:22:31.103Z,99317.67
2022-08-29T10:25:21.714Z,99312.97
2022-08-29T10:28:10.923Z,99312.61
2022-08-29T10:30:52.310Z,99306.64
2022-08-29T10:33:39.757Z,99304.77
2022-08-29T10:36:37.364Z,99300.09
2022-08-29T10:39:14.292Z,99302.58
2022-08-29T10:41:50.159Z,99305.89
2022-08-29T10:44:33.233Z,99305.74
2022-08-29T10:47:38.247Z,99298.98
2022-08-29T10:50:42.925Z,99296.95
2022-08-29T10:53:22.360Z,99294.08
2022-08-29T10:56:08.000Z,99296.02
2022-08-29T10:58:57.916Z,99296.50
2022-08-29T11:01:53.895Z,99298.35
2022-08-29T11:04:43.834Z,99296.54
2022-08-29T11:07:21.126Z,99298.67
2022-08-29T11:10:01.151Z,99302.02
2022-08-29T11:12:45.429Z,99302.23
2022-08-29T11:15:16.846Z,99298.45
2022-08-29T11:17:52.507Z,99300.95
2022-08-29T11:20:33.269Z,99301.41
2022-08-29T11:23:42.218Z,99295.94
2022-08-29T11:26:11.961Z,99296.72
2022-08-29T11:29:11.261Z,99284.52
2022-08-29T11:32:04.166Z,99283.84
2022-08-29T11:35:07.702Z,99285.40
2022-08-29T11:38:01.345Z,99293.91
2022-08-29T11:41:26.277Z,99300.65
2022-08-29T11:43:37.394Z,99301.66
2022-08-29T11:46:08.089Z,99298.54
2022-08-29T11:48:46.433Z,99294.33
2022-08-29T11:51:38.044Z,99291.72
2022-08-29T11:54:25.218Z,99290.01
2022-08-29T11:57:19.851Z,99288.77
2022-08-29T11:59:56.808Z,99286.67
2022-08-29T12:02:27.934Z,99288.41
2022-08-29T12:05:00.744Z,99284.81
2022-08-29T12:07:38.972Z,99285.57
2022-08-29T12:10:19.682Z,99276.90
2022-08-29T12:12:51.226Z,99279.97
2022-08-29T12:15:34.597Z,99286.09
2022-08-29T12:18:14.263Z,99290.42
2022-08-29T12:20:45.665Z,99292.40
2022-08-29T12:23:13.840Z,99294.48
2022-08-29T12:26:03.705Z,99301.02
2022-08-29T12:28:45.770Z,99303.41
2022-08-29T12:31:24.737Z,99307.04
2022-08-29T12:34:15.950Z,99309.05
2022-08-29T12:36:56.493Z,99305.75
2022-08-29T12:39:59.183Z,99303.73
2022-08-29T12:42:27.358Z,99299.48
2022-08-29T12:45:09.745Z,99300.48
2022-08-29T12:47:45.889Z,99297.34
2022-08-29T12:50:32.479Z,99293.48
2022-08-29T12:53:15.704Z,99286.18
2022-08-29T12:55:50.962Z,99288.33
2022-08-29T12:58:31.515Z,99293.19
2022-08-29T13:01:00.037Z,99292.55
2022-08-29T13:03:28.339Z,99289.65
2022-08-29T13:06:06.174Z,99292.63
2022-08-29T13:08:39.026Z,99294.04
2022-08-29T13:11:10.498Z,99294.01
2022-08-29T13:13:39.194Z,99289.23
2022-08-29T13:16:09.238Z,99286.11
2022-08-29T13:18:53.868Z,99286.95
2022-08-29T13:21:29.153Z,99285.80
2022-08-29T13:24:02.693Z,99290.29
2022-08-29T13:26:34.183Z,99291.45
2022-08-29T13:29:38.446Z,99290.56
2022-08-29T13:32:18.957Z,99283.80
2022-08-29T13:35:18.978Z,99282.70
2022-08-29T13:38:16.959Z,99276.14
2022-08-29T13:40:48.754Z,99267.50
2022-08-29T13:43:33.478Z,99260.59
2022-08-29T13:46:10.671Z,99258.30
2022-08-29T13:48:42.935Z,99261.56
2022-08-29T13:51:11.341Z,99260.94
2022-08-29T13:53:39.686Z,99260.64
2022-08-29T13:56:32.123Z,99262.45
2022-08-29T13:59:01.699Z,99259.59
2022-08-29T14:01:30.824Z,99263.29
2022-08-29T14:04:37.359Z,99268.23
2022-08-29T14:07:06.933Z,99264.38
2022-08-29T14:09:39.307Z,99265.02
2022-08-29T14:12:08.010Z,99268.41
2022-08-29T14:14:36.563Z,99270.38
2022-08-29T14:17:05.167Z,99272.67
2022-08-29T14:19:33.640Z,99270.85
2022-08-29T14:22:02.586Z,99271.33
2022-08-29T14:24:32.795Z,99270.94
2022-08-29T14:27:02.851Z,99271.20
2022-08-29T14:29:35.723Z,99272.08
2022-08-29T14:32:04.615Z,99274.73
2022-08-29T14:34:33.291Z,99276.90
2022-08-29T14:37:02.259Z,99276.17
2022-08-29T14:39:30.660Z,99272.42
2022-08-29T14:41:58.966Z,99270.69
2022-08-29T14:44:27.555Z,99274.33
2022-08-29T14:46:55.915Z,99271.10
2022-08-29T14:49:24.367Z,99268.17
2022-08-29T14:51:52.759Z,99265.23
2022-08-29T14:54:21.484Z,99264.80
2022-08-29T14:56:50.491Z,99263.45
2022-08-29T14:59:20.919Z,99262.79
2022-08-29T15:01:54.329Z,99260.14
2022-08-29T15:04:36.661Z,99260.84
2022-08-29T15:07:11.982Z,99259.70
2022-08-29T15:09:42.035Z,99262.47
2022-08-29T15:12:17.110Z,99260.40
2022-08-29T15:14:46.397Z,99259.66
2022-08-29T15:17:15.102Z,99259.79
2022-08-29T15:22:32.463Z,99255.08
2022-08-29T15:25:01.339Z,99252.30
2022-08-29T15:27:31.179Z,99253.86
2022-08-29T15:29:59.441Z,99250.20
2022-08-29T15:32:28.807Z,99251.23
2022-08-29T15:34:57.326Z,99252.16
2022-08-29T15:37:25.790Z,99250.27
2022-08-29T15:39:55.139Z,99248.52
2022-08-29T15:42:29.078Z,99250.80
2022-08-29T15:45:02.469Z,99250.08
2022-08-29T15:47:35.386Z,99245.17
2022-08-29T15:50:04.417Z,99244.30
2022-08-29T15:52:32.901Z,99239.63
2022-08-29T15:55:01.446Z,99239.73
2022-08-29T15:57:30.001Z,99237.84
2022-08-29T15:59:58.983Z,99237.55
2022-08-29T16:02:28.389Z,99238.70
2022-08-29T16:04:57.563Z,99236.23
2022-08-29T16:07:29.097Z,99238.38
2022-08-29T16:10:01.010Z,99236.02
2022-08-29T16:12:31.496Z,99237.13
2022-08-29T16:15:01.074Z,99238.60
2022-08-29T16:17:31.601Z,99236.61
2022-08-29T16:20:01.470Z,99240.24
2022-08-29T16:22:30.089Z,99238.70
2022-08-29T16:25:01.594Z,99240.52
2022-08-29T16:27:30.497Z,99240.95
2022-08-29T16:29:58.837Z,99237.81
2022-08-29T16:32:27.346Z,99240.18
2022-08-29T16:34:55.659Z,99238.61
2022-08-29T16:37:23.892Z,99238.70
2022-08-29T16:39:53.206Z,99243.04
2022-08-29T16:42:22.301Z,99244.23
2022-08-29T16:44:50.544Z,99247.89
2022-08-29T16:47:19.161Z,99250.64
2022-08-29T16:49:47.948Z,99247.17
2022-08-29T16:52:16.271Z,99250.54
2022-08-29T16:54:44.566Z,99251.48
2022-08-29T16:57:12.870Z,99255.50
2022-08-29T16:59:41.457Z,99255.88
2022-08-29T17:02:09.813Z,99252.90
2022-08-29T17:04:38.235Z,99259.25
2022-08-29T17:07:06.979Z,99260.23
2022-08-29T17:09:35.208Z,99259.36
2022-08-29T17:12:03.934Z,99263.16
2022-08-29T17:14:32.199Z,99267.41
2022-08-29T17:17:02.230Z,99268.52
2022-08-29T17:19:30.928Z,99271.09
2022-08-29T17:22:02.115Z,99273.77
2022-08-29T17:24:30.527Z,99274.32
2022-08-29T17:26:58.800Z,99277.02
2022-08-29T17:29:27.039Z,99280.33
2022-08-29T17:31:55.370Z,99281.73
2022-08-29T17:34:23.994Z,99287.14
2022-08-29T17:36:52.340Z,99293.87
2022-08-29T17:39:21.396Z,99293.70
2022-08-29T17:41:51.631Z,99299.06
2022-08-29T17:44:20.231Z,99301.44
2022-08-29T17:46:48.597Z,99300.38
2022-08-29T17:49:16.903Z,99304.89
2022-08-29T17:51:52.849Z,99305.73
2022-08-29T17:54:24.327Z,99307.74
2022-08-29T17:56:55.787Z,99309.67
2022-08-29T17:59:27.447Z,99316.05
2022-08-29T18:01:56.717Z,99317.83
2022-08-29T18:04:27.055Z,99320.92
2022-08-29T18:06:56.789Z,99325.11
2022-08-29T18:09:52.136Z,99326.68
2022-08-29T18:12:20.593Z,99330.76
2022-08-29T18:14:49.208Z,99333.31
2022-08-29T18:17:23.460Z,99338.00
2022-08-29T18:19:51.814Z,99340.09
2022-08-29T18:22:20.102Z,99342.95
2022-08-29T18:24:48.310Z,99347.21
2022-08-29T18:27:17.199Z,99350.26
2022-08-29T18:29:49.461Z,99347.92
2022-08-29T18:32:19.398Z,99352.13
2022-08-29T18:34:48.345Z,99352.42
2022-08-29T18:37:16.652Z,99350.09
2022-08-29T18:39:46.122Z,99352.61
2022-08-29T18:42:36.815Z,99358.59
2022-08-29T18:45:03.007Z,99366.51
2022-08-29T18:47:32.435Z,99375.30
2022-08-29T18:50:19.683Z,99380.00
2022-08-29T18:52:53.831Z,99386.17
2022-08-29T18:55:23.493Z,99393.88
2022-08-29T18:57:52.435Z,99395.78
2022-08-29T19:00:21.603Z,99398.67
2022-08-29T19:02:49.901Z,99403.30
2022-08-29T19:05:20.986Z,99404.27
2022-08-29T19:07:49.353Z,99403.11
2022-08-29T19:10:17.704Z,99405.27
2022-08-29T19:12:46.906Z,99408.96
2022-08-29T19:15:17.888Z,99410.86
2022-08-29T19:17:46.935Z,99416.39
2022-08-29T19:20:40.797Z,99422.19
2022-08-29T19:23:09.385Z,99427.48
2022-08-29T19:25:40.346Z,99431.48
2022-08-29T19:28:10.232Z,99431.40
2022-08-29T19:30:38.912Z,99435.66
2022-08-29T19:33:10.154Z,99435.38
2022-08-29T19:35:38.822Z,99440.58
2022-08-29T19:38:07.905Z,99440.27
2022-08-29T19:40:39.375Z,99442.89
2022-08-29T19:43:13.597Z,99450.05
2022-08-29T19:45:43.477Z,99445.71
2022-08-29T19:48:15.184Z,99449.74
2022-08-29T19:50:47.468Z,99450.86
2022-08-29T19:53:19.956Z,99453.56
2022-08-29T19:55:56.681Z,99451.20
2022-08-29T19:58:31.223Z,99455.03
2022-08-29T20:01:02.684Z,99450.45
2022-08-29T20:03:33.257Z,99450.80
2022-08-29T20:06:09.543Z,99448.61
2022-08-29T20:08:50.640Z,99448.71
2022-08-29T20:12:17.753Z,99447.81
2022-08-29T20:15:39.786Z,99448.80
2022-08-29T20:18:11.159Z,99449.50
2022-08-29T20:25:18.899Z,99459.20
2022-08-29T20:28:00.071Z,99458.92
2022-08-29T20:34:13.621Z,99459.65
2022-08-29T20:40:57.734Z,99460.51
2022-08-29T20:43:27.417Z,99460.77
2022-08-29T20:45:55.902Z,99463.52
2022-08-29T20:48:31.211Z,99460.19
2022-08-29T20:51:06.986Z,99461.45
2022-08-29T20:53:37.702Z,99454.79
2022-08-29T20:56:06.635Z,99457.88
2022-08-29T20:58:35.750Z,99458.44
2022-08-29T21:01:04.268Z,99456.48
2022-08-29T21:03:52.766Z,99462.25
2022-08-29T21:06:21.904Z,99460.02
2022-08-29T21:08:50.317Z,99457.73
2022-08-29T21:11:18.717Z,99455.45
2022-08-29T21:13:50.042Z,99455.59
2022-08-29T21:16:21.281Z,99455.39
2022-08-29T21:18:53.705Z,99450.98
2022-08-29T21:21:24.824Z,99456.90
2022-08-29T21:23:53.625Z,99456.77
2022-08-29T21:26:21.827Z,99459.77
2022-08-29T21:28:50.179Z,99455.19
2022-08-29T21:31:20.697Z,99454.04
2022-08-29T21:33:48.946Z,99456.31
2022-08-29T21:36:22.848Z,99456.23
2022-08-29T21:38:54.413Z,99455.36
2022-08-29T21:41:24.587Z,99454.61
2022-08-29T21:43:53.806Z,99457.41
2022-08-29T21:46:28.763Z,99455.41
2022-08-29T21:49:00.614Z,99461.02
2022-08-29T21:51:30.853Z,99463.46
2022-08-29T21:53:59.922Z,99465.45
2022-08-29T21:56:31.206Z,99468.64
2022-08-29T21:59:01.491Z,99465.70
2022-08-29T22:01:32.978Z,99467.29
2022-08-29T22:04:02.572Z,99466.96
2022-08-29T22:06:33.390Z,99470.32
2022-08-29T22:09:30.798Z,99468.27
2022-08-29T22:11:59.538Z,99468.67
2022-08-29T22:14:47.140Z,99466.30
2022-08-29T22:17:16.271Z,99463.94
2022-08-29T22:19:44.789Z,99465.14
2022-08-29T22:22:13.052Z,99467.92
2022-08-29T22:24:41.409Z,99467.86
2022-08-29T22:27:09.700Z,99466.11
2022-08-29T22:29:38.451Z,99466.02
2022-08-29T22:32:09.573Z,99464.55
2022-08-29T22:34:37.965Z,99465.73
2022-08-29T22:37:06.966Z,99462.12
2022-08-29T22:39:35.240Z,99461.57
2022-08-29T22:42:03.838Z,99465.14
2022-08-29T22:44:59.561Z,99465.05
2022-08-29T22:47:21.151Z,99463.31
2022-08-29T22:49:49.437Z,99463.48
2022-08-29T22:52:20.949Z,99465.65
2022-08-29T22:54:49.275Z,99463.46
2022-08-29T22:57:19.570Z,99463.44
2022-08-29T22:59:50.004Z,99460.66
2022-08-29T23:02:20.283Z,99465.35
2022-08-29T23:04:50.590Z,99466.53
2022-08-29T23:07:19.588Z,99470.90
2022-08-29T23:09:47.938Z,99473.23
2022-08-29T23:12:16.657Z,99474.84
2022-08-29T23:14:48.757Z,99475.95
2022-08-29T23:17:17.906Z,99477.00
2022-08-29T23:19:46.688Z,99479.59
2022-08-29T23:23:09.583Z,99480.45
2022-08-29T23:25:38.306Z,99483.89
2022-08-29T23:28:06.681Z,99482.73
2022-08-29T23:30:35.286Z,99485.84
2022-08-29T23:33:03.818Z,99486.08
2022-08-29T23:35:32.062Z,99483.05
2022-08-29T23:38:00.342Z,99479.80
2022-08-29T23:40:30.302Z,99476.55
2022-08-29T23:42:58.642Z,99479.88
2022-08-29T23:45:27.330Z,99480.38
2022-08-29T23:47:55.689Z,99481.61
2022-08-29T23:50:24.196Z,99479.64
2022-08-29T23:52:52.429Z,99474.95
2022-08-29T23:55:20.968Z,99477.60
2022-08-29T23:57:49.169Z,99477.04
